createdAt,value
2019-04-24T00:00:26.431Z,0.00
2019-04-24T00:01:08.300Z,0.00
2019-04-24T00:02:39.283Z,0.00
2019-04-24T00:03:18.132Z,0.00
2019-04-24T00:04:19.049Z,0.00
2019-04-24T00:05:29.025Z,0.00
2019-04-24T00:06:12.488Z,0.00
2019-04-24T00:07:16.987Z,0.00
2019-04-24T00:09:07.839Z,0.00
2019-04-24T00:10:11.689Z,0.00
2019-04-24T00:12:10.406Z,0.00
2019-04-24T00:13:17.167Z,0.00
2019-04-24T00:15:27.652Z,0.00
2019-04-24T00:16:08.699Z,0.00
2019-04-24T00:17:10.964Z,0.00
2019-04-24T00:21:11.276Z,0.00
2019-04-24T00:22:08.869Z,0.00
2019-04-24T00:23:12.415Z,0.00
2019-04-24T00:24:14.411Z,0.00
2019-04-24T00:25:09.066Z,0.00
2019-04-24T00:26:14.658Z,0.00
2019-04-24T00:27:13.953Z,0.00
2019-04-24T00:28:16.396Z,0.00
2019-04-24T00:30:01.896Z,0.00
2019-04-24T00:33:15.227Z,0.00
2019-04-24T00:34:16.398Z,0.00
2019-04-24T00:35:20.174Z,0.00
2019-04-24T00:36:27.517Z,0.00
2019-04-24T00:37:19.838Z,0.00
2019-04-24T00:38:12.525Z,0.00
2019-04-24T00:39:52.783Z,0.00
2019-04-24T00:42:09.793Z,0.00
2019-04-24T00:44:06.377Z,0.00
2019-04-24T00:46:19.637Z,0.00
2019-04-24T00:47:11.755Z,0.00
2019-04-24T00:49:18.293Z,0.00
2019-04-24T00:50:05.957Z,0.00
2019-04-24T00:51:17.863Z,0.00
2019-04-24T00:52:04.120Z,0.00
2019-04-24T00:54:09.363Z,0.00
2019-04-24T00:56:13.934Z,0.00
2019-04-24T00:57:06.805Z,0.00
2019-04-24T00:59:17.905Z,0.00
2019-04-24T01:00:04.269Z,0.00
2019-04-24T01:01:22.619Z,0.00
2019-04-24T01:02:13.205Z,0.00
2019-04-24T01:04:26.620Z,0.00
2019-04-24T01:07:20.037Z,0.00
2019-04-24T01:08:06.612Z,0.00
2019-04-24T01:09:14.971Z,0.00
2019-04-24T01:10:18.587Z,0.00
2019-04-24T01:12:11.708Z,0.00
2019-04-24T01:13:13.013Z,0.00
2019-04-24T01:14:12.535Z,0.00
2019-04-24T01:15:17.674Z,0.00
2019-04-24T01:16:15.944Z,0.00
2019-04-24T01:17:14.141Z,0.00
2019-04-24T01:17:55.820Z,0.00
2019-04-24T01:19:04.798Z,0.00
2019-04-24T01:20:24.210Z,0.00
2019-04-24T01:21:07.290Z,0.00
2019-04-24T01:22:19.433Z,0.00
2019-04-24T01:23:08.300Z,0.00
2019-04-24T01:25:23.282Z,0.00
2019-04-24T01:27:10.397Z,0.00
2019-04-24T01:28:08.682Z,0.00
2019-04-24T01:29:17.098Z,0.00
2019-04-24T01:30:23.431Z,0.00
2019-04-24T01:32:09.311Z,0.00
2019-04-24T01:33:16.337Z,0.00
2019-04-24T01:34:10.624Z,0.00
2019-04-24T01:35:12.517Z,0.00
2019-04-24T01:36:17.971Z,0.00
2019-04-24T01:37:06.862Z,0.00
2019-04-24T01:38:11.076Z,0.00
2019-04-24T01:40:11.813Z,0.00
2019-04-24T01:41:07.262Z,0.00
2019-04-24T01:42:16.452Z,0.00
2019-04-24T01:43:10.208Z,0.00
2019-04-24T01:44:09.385Z,0.00
2019-04-24T01:45:16.554Z,0.00
2019-04-24T01:46:08.378Z,0.00
2019-04-24T01:47:16.619Z,0.00
2019-04-24T01:49:11.569Z,0.00
2019-04-24T01:51:07.906Z,0.00
2019-04-24T01:53:05.762Z,0.00
2019-04-24T01:54:12.447Z,0.00
2019-04-24T01:55:07.528Z,0.00
2019-04-24T01:56:08.893Z,0.00
2019-04-24T01:57:20.947Z,0.00
2019-04-24T01:58:06.910Z,0.00
2019-04-24T01:59:11.774Z,0.00
2019-04-24T02:00:28.882Z,0.00
2019-04-24T02:01:11.050Z,0.00
2019-04-24T02:02:17.469Z,0.00
2019-04-24T02:02:59.402Z,0.00
2019-04-24T02:04:03.540Z,0.00
2019-04-24T02:05:09.756Z,0.00
2019-04-24T02:06:11.743Z,0.00
2019-04-24T02:07:11.119Z,0.00
2019-04-24T02:08:15.169Z,0.00
2019-04-24T02:09:06.813Z,0.00
2019-04-24T02:10:26.369Z,0.00
2019-04-24T02:11:34.045Z,0.00
2019-04-24T02:12:04.951Z,0.00
2019-04-24T02:13:24.033Z,0.00
2019-04-24T02:14:10.059Z,0.00
2019-04-24T02:16:00.433Z,0.00
2019-04-24T02:17:10.406Z,0.00
2019-04-24T02:18:11.540Z,0.00
2019-04-24T02:19:00.907Z,0.00
2019-04-24T02:20:15.017Z,0.00
2019-04-24T02:21:09.794Z,0.00
2019-04-24T02:22:26.121Z,0.00
2019-04-24T02:24:10.076Z,0.00
2019-04-24T02:25:22.737Z,0.00
2019-04-24T02:26:12.446Z,0.00
2019-04-24T02:27:02.256Z,0.00
2019-04-24T02:28:16.923Z,0.00
2019-04-24T02:30:08.954Z,0.00
2019-04-24T02:31:17.817Z,0.00
2019-04-24T02:32:29.870Z,0.00
2019-04-24T02:33:32.804Z,0.00
2019-04-24T02:34:08.488Z,0.00
2019-04-24T02:36:35.949Z,0.00
2019-04-24T02:37:26.728Z,0.00
2019-04-24T02:40:28.504Z,0.00
2019-04-24T02:41:35.227Z,0.00
2019-04-24T02:42:23.761Z,0.00
2019-04-24T02:45:21.492Z,0.00
2019-04-24T02:47:05.828Z,0.00
2019-04-24T02:48:17.844Z,0.00
2019-04-24T02:51:16.320Z,0.00
2019-04-24T02:53:12.938Z,0.00
2019-04-24T02:55:13.570Z,0.00
2019-04-24T02:56:17.271Z,0.00
2019-04-24T02:58:13.543Z,0.00
2019-04-24T03:00:12.194Z,0.00
2019-04-24T03:01:06.691Z,0.00
2019-04-24T03:02:19.970Z,0.00
2019-04-24T03:03:17.353Z,0.00
2019-04-24T03:04:12.604Z,0.00
2019-04-24T03:05:27.918Z,0.00
2019-04-24T03:07:14.321Z,0.00
2019-04-24T03:11:16.437Z,0.00
2019-04-24T03:16:30.464Z,0.00
2019-04-24T03:17:22.870Z,4.00
2019-04-24T03:18:10.283Z,4.00
2019-04-24T03:20:12.526Z,4.00
2019-04-24T03:21:38.927Z,4.00
2019-04-24T03:24:21.307Z,8.00
2019-04-24T03:25:47.460Z,8.00
2019-04-24T03:30:24.140Z,16.00
2019-04-24T03:32:51.248Z,20.00
2019-04-24T03:35:32.421Z,32.00
2019-04-24T03:38:42.868Z,48.00
2019-04-24T03:39:34.110Z,52.00
2019-04-24T03:44:37.749Z,100.00
2019-04-24T03:47:06.864Z,132.00
2019-04-24T03:49:17.622Z,156.00
2019-04-24T03:50:26.195Z,176.00
2019-04-24T03:53:42.612Z,232.00
2019-04-24T03:57:09.408Z,344.00
2019-04-24T03:58:20.310Z,376.00
2019-04-24T03:59:11.004Z,412.00
2019-04-24T04:04:12.865Z,628.00
2019-04-24T04:06:00.705Z,728.00
2019-04-24T04:08:15.836Z,832.00
2019-04-24T04:09:12.207Z,888.00
2019-04-24T04:11:12.268Z,988.00
2019-04-24T04:13:29.854Z,1096.00
2019-04-24T04:14:01.565Z,1152.00
2019-04-24T04:15:16.248Z,1216.00
2019-04-24T04:17:09.026Z,1340.00
2019-04-24T04:18:37.205Z,1404.00
2019-04-24T04:20:24.685Z,1532.00
2019-04-24T04:22:33.851Z,1656.00
2019-04-24T04:24:33.165Z,1772.00
2019-04-24T04:29:35.304Z,1980.00
2019-04-24T04:30:10.188Z,2032.00
2019-04-24T04:32:01.354Z,2172.00
2019-04-24T04:33:14.366Z,2252.00
2019-04-24T04:34:14.780Z,2336.00
2019-04-24T04:35:02.292Z,2424.00
2019-04-24T04:38:13.100Z,2724.00
2019-04-24T04:40:09.267Z,2964.00
2019-04-24T04:41:58.914Z,3212.00
2019-04-24T04:43:08.365Z,3336.00
2019-04-24T04:45:11.358Z,3600.00
2019-04-24T04:47:12.553Z,3864.00
2019-04-24T04:47:57.640Z,3996.00
2019-04-24T04:49:18.806Z,4120.00
2019-04-24T04:52:31.429Z,4448.00
2019-04-24T04:53:35.155Z,4524.00
2019-04-24T04:54:06.885Z,4592.00
2019-04-24T04:57:14.062Z,4780.00
2019-04-24T04:58:19.502Z,4800.00
2019-04-24T05:05:36.173Z,4288.00
2019-04-24T05:06:57.205Z,4148.00
2019-04-24T05:08:15.453Z,3872.00
2019-04-24T05:11:04.360Z,3572.00
2019-04-24T05:13:02.082Z,3456.00
2019-04-24T05:16:16.623Z,3432.00
2019-04-24T05:18:12.254Z,3516.00
2019-04-24T05:19:47.684Z,3512.00
2019-04-24T05:22:16.494Z,3536.00
2019-04-24T05:22:59.031Z,3552.00
2019-04-24T05:25:11.886Z,3632.00
2019-04-24T05:26:21.006Z,3700.00
2019-04-24T05:28:03.105Z,3872.00
2019-04-24T05:31:11.478Z,4120.00
2019-04-24T05:34:03.746Z,4216.00
2019-04-24T05:35:55.235Z,4292.00
2019-04-24T05:37:01.807Z,4344.00
2019-04-24T05:39:58.775Z,4628.00
2019-04-24T05:40:49.239Z,4812.00
2019-04-24T05:42:06.483Z,5028.00
2019-04-24T05:43:58.607Z,5464.00
2019-04-24T05:46:55.890Z,6112.00
2019-04-24T05:48:58.708Z,6416.00
2019-04-24T05:50:58.020Z,6704.00
2019-04-24T05:51:54.572Z,6864.00
2019-04-24T05:54:53.357Z,7264.00
2019-04-24T05:57:09.599Z,7376.00
2019-04-24T05:58:14.315Z,7368.00
2019-04-24T05:59:05.442Z,7364.00
2019-04-24T05:59:57.473Z,7340.00
2019-04-24T06:01:01.194Z,7328.00
2019-04-24T06:02:20.237Z,7332.00
2019-04-24T06:02:56.925Z,7392.00
2019-04-24T06:06:12.002Z,7832.00
2019-04-24T06:07:00.504Z,7992.00
2019-04-24T06:08:07.040Z,8132.00
2019-04-24T06:08:58.710Z,8228.00
2019-04-24T06:10:03.148Z,8344.00
2019-04-24T06:11:58.296Z,8536.00
2019-04-24T06:13:04.537Z,8640.00
2019-04-24T06:13:50.395Z,8700.00
2019-04-24T06:15:59.183Z,8756.00
2019-04-24T06:16:58.210Z,8752.00
2019-04-24T06:19:05.685Z,8780.00
2019-04-24T06:20:01.872Z,8820.00
2019-04-24T06:21:01.961Z,8812.00
2019-04-24T06:22:01.804Z,8848.00
2019-04-24T06:23:00.454Z,8888.00
2019-04-24T06:25:25.860Z,8988.00
2019-04-24T06:26:15.914Z,9040.00
2019-04-24T06:27:03.800Z,9112.00
2019-04-24T06:27:57.401Z,9236.00
2019-04-24T06:33:12.012Z,10180.00
2019-04-24T06:34:19.977Z,10328.00
2019-04-24T06:36:19.548Z,10564.00
2019-04-24T06:38:24.748Z,10812.00
2019-04-24T06:39:28.748Z,10912.00
2019-04-24T06:44:42.801Z,11388.00
2019-04-24T06:45:21.091Z,11420.00
2019-04-24T06:46:16.441Z,11216.00
2019-04-24T06:47:49.641Z,10788.00
2019-04-24T06:48:12.457Z,10488.00
2019-04-24T06:50:28.985Z,10276.00
2019-04-24T06:51:16.214Z,10312.00
2019-04-24T06:53:03.828Z,10032.00
2019-04-24T06:54:23.401Z,9804.00
2019-04-24T06:55:13.482Z,9508.00
2019-04-24T06:58:11.757Z,9408.00
2019-04-24T06:59:20.483Z,9432.00
2019-04-24T07:00:28.239Z,9640.00
2019-04-24T07:01:16.791Z,9744.00
2019-04-24T07:02:11.391Z,9832.00
2019-04-24T07:03:14.402Z,9996.00
2019-04-24T07:04:37.603Z,10068.00
2019-04-24T07:05:30.930Z,10052.00
2019-04-24T07:06:22.483Z,9960.00
2019-04-24T07:07:33.785Z,9868.00
2019-04-24T07:07:59.666Z,9748.00
2019-04-24T07:09:30.636Z,9608.00
2019-04-24T07:10:33.650Z,9392.00
2019-04-24T07:11:18.471Z,9196.00
2019-04-24T07:13:49.234Z,8920.00
2019-04-24T07:15:19.649Z,8844.00
2019-04-24T07:17:07.187Z,8800.00
2019-04-24T07:19:07.711Z,8664.00
2019-04-24T07:20:27.176Z,8616.00
2019-04-24T07:21:12.330Z,8584.00
2019-04-24T07:23:26.178Z,8516.00
2019-04-24T07:24:18.480Z,8476.00
2019-04-24T07:25:21.134Z,8476.00
2019-04-24T07:26:13.877Z,8432.00
2019-04-24T07:27:33.710Z,8412.00
2019-04-24T07:30:19.798Z,8308.00
2019-04-24T07:31:35.602Z,8140.00
2019-04-24T07:32:15.638Z,7976.00
2019-04-24T07:36:17.602Z,8032.00
2019-04-24T07:37:27.200Z,8076.00
2019-04-24T07:38:19.252Z,8124.00
2019-04-24T07:39:23.580Z,8176.00
2019-04-24T07:40:08.692Z,8180.00
2019-04-24T07:41:19.113Z,8176.00
2019-04-24T07:42:14.517Z,8152.00
2019-04-24T07:44:13.340Z,8092.00
2019-04-24T07:45:28.690Z,8100.00
2019-04-24T07:46:18.750Z,8076.00
2019-04-24T07:47:14.793Z,8068.00
2019-04-24T07:48:22.508Z,8016.00
2019-04-24T07:50:19.775Z,7880.00
2019-04-24T07:51:31.086Z,7820.00
2019-04-24T07:53:42.875Z,7752.00
2019-04-24T07:55:17.915Z,7656.00
2019-04-24T07:56:20.001Z,7608.00
2019-04-24T07:58:17.442Z,7524.00
2019-04-24T07:59:36.699Z,7480.00
2019-04-24T08:01:30.439Z,7492.00
2019-04-24T08:02:19.031Z,7528.00
2019-04-24T08:03:24.664Z,7532.00
2019-04-24T08:04:29.637Z,7540.00
2019-04-24T08:05:08.283Z,7544.00
2019-04-24T08:06:29.405Z,7536.00
2019-04-24T08:07:28.663Z,7572.00
2019-04-24T08:08:10.590Z,7628.00
2019-04-24T08:09:28.181Z,7632.00
2019-04-24T08:10:27.855Z,7616.00
2019-04-24T08:11:07.920Z,7584.00
2019-04-24T08:12:16.603Z,7576.00
2019-04-24T08:14:31.029Z,7600.00
2019-04-24T08:17:31.387Z,7640.00
2019-04-24T08:19:22.281Z,7652.00
2019-04-24T08:20:18.960Z,7656.00
2019-04-24T08:21:01.375Z,7448.00
2019-04-24T08:22:33.096Z,7204.00
2019-04-24T08:23:17.783Z,7184.00
2019-04-24T08:24:35.160Z,7472.00
2019-04-24T08:25:18.961Z,7536.00
2019-04-24T08:28:11.272Z,7556.00
2019-04-24T08:29:07.745Z,7592.00
2019-04-24T08:31:21.128Z,7500.00
2019-04-24T08:32:21.613Z,7456.00
2019-04-24T08:33:29.405Z,7348.00
2019-04-24T08:35:25.251Z,7156.00
2019-04-24T08:36:06.627Z,7096.00
2019-04-24T08:37:21.631Z,7060.00
2019-04-24T08:38:18.905Z,7072.00
2019-04-24T08:39:29.481Z,7072.00
2019-04-24T08:40:16.846Z,7136.00
2019-04-24T08:41:22.015Z,7160.00
2019-04-24T08:44:15.801Z,7292.00
2019-04-24T08:46:18.925Z,7444.00
2019-04-24T08:47:12.449Z,7436.00
2019-04-24T08:48:20.796Z,7484.00
2019-04-24T08:50:33.797Z,7508.00
2019-04-24T08:51:21.421Z,7512.00
2019-04-24T08:52:44.774Z,7492.00
2019-04-24T08:53:30.958Z,7420.00
2019-04-24T08:55:19.472Z,7424.00
2019-04-24T08:56:08.901Z,7388.00
2019-04-24T08:57:15.352Z,7364.00
2019-04-24T08:59:22.057Z,7268.00
2019-04-24T09:01:19.070Z,7136.00
2019-04-24T09:02:08.443Z,7116.00
2019-04-24T09:04:15.835Z,7064.00
2019-04-24T09:05:02.973Z,7032.00
2019-04-24T09:06:03.749Z,7040.00
2019-04-24T09:07:08.360Z,7032.00
2019-04-24T09:08:19.992Z,7008.00
2019-04-24T09:09:26.188Z,7028.00
2019-04-24T09:10:36.037Z,7040.00
2019-04-24T09:12:21.348Z,7068.00
2019-04-24T09:15:23.024Z,7020.00
2019-04-24T09:16:28.900Z,6992.00
2019-04-24T09:17:12.492Z,6988.00
2019-04-24T09:18:15.208Z,7008.00
2019-04-24T09:20:23.432Z,6996.00
2019-04-24T09:21:15.737Z,6972.00
2019-04-24T09:22:12.600Z,6980.00
2019-04-24T09:23:21.907Z,6992.00
2019-04-24T09:25:18.013Z,7012.00
2019-04-24T09:26:45.303Z,7032.00
2019-04-24T09:27:21.748Z,7000.00
2019-04-24T09:28:15.591Z,6988.00
2019-04-24T09:29:43.342Z,6984.00
2019-04-24T09:30:20.182Z,6940.00
2019-04-24T09:31:12.645Z,6924.00
2019-04-24T09:33:16.583Z,6944.00
2019-04-24T09:35:15.270Z,6916.00
2019-04-24T09:36:37.435Z,6924.00
2019-04-24T09:37:07.137Z,6884.00
2019-04-24T09:39:15.451Z,6864.00
2019-04-24T09:40:37.911Z,6860.00
2019-04-24T09:43:27.859Z,6780.00
2019-04-24T09:44:24.573Z,6716.00
2019-04-24T09:45:15.035Z,6520.00
2019-04-24T09:46:09.647Z,6460.00
2019-04-24T09:47:12.801Z,6552.00
2019-04-24T09:48:17.133Z,6560.00
2019-04-24T09:50:21.287Z,6628.00
2019-04-24T09:52:21.397Z,6608.00
2019-04-24T09:53:34.985Z,6556.00
2019-04-24T09:55:15.709Z,6776.00
2019-04-24T09:56:03.688Z,6936.00
2019-04-24T09:58:14.409Z,7076.00
2019-04-24T09:59:15.721Z,7116.00
2019-04-24T10:00:04.807Z,7148.00
2019-04-24T10:01:25.341Z,7184.00
2019-04-24T10:02:17.681Z,7252.00
2019-04-24T10:03:18.853Z,7320.00
2019-04-24T10:04:28.226Z,7360.00
2019-04-24T10:07:21.643Z,7476.00
2019-04-24T10:08:12.639Z,7532.00
2019-04-24T10:09:10.373Z,7548.00
2019-04-24T10:10:32.925Z,7544.00
2019-04-24T10:11:22.025Z,7540.00
2019-04-24T10:13:08.083Z,7540.00
2019-04-24T10:14:10.132Z,7532.00
2019-04-24T10:15:05.876Z,7564.00
2019-04-24T10:16:10.621Z,7560.00
2019-04-24T10:19:25.155Z,7612.00
2019-04-24T10:20:22.437Z,7656.00
2019-04-24T10:21:05.299Z,7716.00
2019-04-24T10:22:04.768Z,7744.00
2019-04-24T10:24:06.735Z,7712.00
2019-04-24T10:25:12.216Z,7716.00
2019-04-24T10:26:07.084Z,7692.00
2019-04-24T10:27:13.933Z,7632.00
2019-04-24T10:29:24.462Z,7572.00
2019-04-24T10:30:07.873Z,7544.00
2019-04-24T10:31:09.837Z,7504.00
2019-04-24T10:34:05.878Z,7316.00
2019-04-24T10:35:10.770Z,7284.00
2019-04-24T10:36:04.517Z,7264.00
2019-04-24T10:37:12.458Z,7260.00
2019-04-24T10:39:16.759Z,7264.00
2019-04-24T10:40:18.418Z,7240.00
2019-04-24T10:41:09.933Z,7220.00
2019-04-24T10:42:05.049Z,7224.00
2019-04-24T10:43:04.292Z,7244.00
2019-04-24T10:44:13.232Z,7256.00
2019-04-24T10:45:12.070Z,7256.00
2019-04-24T10:46:08.566Z,7248.00
2019-04-24T10:47:23.444Z,7212.00
2019-04-24T10:48:06.440Z,7164.00
2019-04-24T10:49:13.558Z,7124.00
2019-04-24T10:50:27.905Z,7152.00
2019-04-24T10:51:35.830Z,7204.00
2019-04-24T10:52:05.378Z,7288.00
2019-04-24T10:54:02.584Z,7544.00
2019-04-24T10:55:11.672Z,7700.00
2019-04-24T10:56:26.461Z,7840.00
2019-04-24T10:58:05.394Z,8004.00
2019-04-24T10:59:03.412Z,8100.00
2019-04-24T11:00:06.028Z,8208.00
2019-04-24T11:01:20.171Z,8304.00
2019-04-24T11:03:44.966Z,8552.00
2019-04-24T11:04:05.336Z,8752.00
2019-04-24T11:05:33.875Z,8960.00
2019-04-24T11:06:04.291Z,9168.00
2019-04-24T11:07:19.618Z,9252.00
2019-04-24T11:09:33.760Z,9384.00
2019-04-24T11:11:11.070Z,9416.00
2019-04-24T11:12:12.768Z,9304.00
2019-04-24T11:14:13.815Z,8952.00
2019-04-24T11:15:12.337Z,8772.00
2019-04-24T11:16:19.284Z,8508.00
2019-04-24T11:18:09.425Z,8416.00
2019-04-24T11:20:08.037Z,8220.00
2019-04-24T11:21:37.669Z,8288.00
2019-04-24T11:22:25.410Z,8592.00
2019-04-24T11:23:13.732Z,8800.00
2019-04-24T11:24:20.192Z,8804.00
2019-04-24T11:27:20.968Z,8888.00
2019-04-24T11:28:25.964Z,9060.00
2019-04-24T11:29:23.204Z,9316.00
2019-04-24T11:30:13.839Z,9600.00
2019-04-24T11:31:11.789Z,9832.00
2019-04-24T11:32:19.592Z,9984.00
2019-04-24T11:33:21.816Z,10088.00
2019-04-24T11:36:48.318Z,10320.00
2019-04-24T11:38:12.186Z,10180.00
2019-04-24T11:39:18.090Z,10080.00
2019-04-24T11:40:30.374Z,10020.00
2019-04-24T11:41:09.054Z,9916.00
2019-04-24T11:42:04.810Z,9856.00
2019-04-24T11:43:24.974Z,9824.00
2019-04-24T11:44:14.532Z,9764.00
2019-04-24T11:46:22.560Z,9688.00
2019-04-24T11:46:29.703Z,9704.00
2019-04-24T11:48:12.092Z,9604.00
2019-04-24T11:49:15.094Z,9596.00
2019-04-24T11:50:15.908Z,9596.00
2019-04-24T11:53:14.508Z,9528.00
2019-04-24T11:54:03.403Z,9428.00
2019-04-24T11:55:15.606Z,9272.00
2019-04-24T11:56:04.305Z,9128.00
2019-04-24T11:57:21.261Z,8984.00
2019-04-24T11:58:22.075Z,8868.00
2019-04-24T11:58:48.346Z,8760.00
2019-04-24T11:59:50.242Z,8580.00
2019-04-24T12:00:59.518Z,8416.00
2019-04-24T12:02:57.735Z,8076.00
2019-04-24T12:04:16.349Z,7908.00
2019-04-24T12:05:16.012Z,7740.00
2019-04-24T12:06:06.372Z,7640.00
2019-04-24T12:07:09.995Z,7560.00
2019-04-24T12:08:07.028Z,7500.00
2019-04-24T12:11:18.576Z,7248.00
2019-04-24T12:12:00.356Z,7196.00
2019-04-24T12:13:09.971Z,7176.00
2019-04-24T12:15:05.181Z,7152.00
2019-04-24T12:16:53.343Z,7060.00
2019-04-24T12:18:08.507Z,7052.00
2019-04-24T12:19:05.927Z,7016.00
2019-04-24T12:21:16.161Z,6924.00
2019-04-24T12:23:10.181Z,6832.00
2019-04-24T12:24:07.050Z,6792.00
2019-04-24T12:25:02.724Z,6764.00
2019-04-24T12:26:15.221Z,6768.00
2019-04-24T12:26:53.040Z,6756.00
2019-04-24T12:28:08.183Z,6720.00
2019-04-24T12:29:10.527Z,6704.00
2019-04-24T12:30:00.247Z,6656.00
2019-04-24T12:30:56.103Z,6592.00
2019-04-24T12:32:06.837Z,6532.00
2019-04-24T12:33:54.817Z,6432.00
2019-04-24T12:35:01.938Z,6396.00
2019-04-24T12:36:05.960Z,6400.00
2019-04-24T12:37:04.975Z,6424.00
2019-04-24T12:39:03.293Z,6420.00
2019-04-24T12:40:07.228Z,6400.00
2019-04-24T12:41:05.671Z,6376.00
2019-04-24T12:42:04.076Z,6392.00
2019-04-24T12:43:08.377Z,6388.00
2019-04-24T12:44:12.341Z,6372.00
2019-04-24T12:45:03.595Z,6364.00
2019-04-24T12:46:25.290Z,6364.00
2019-04-24T12:48:03.975Z,6384.00
2019-04-24T12:49:03.782Z,6388.00
2019-04-24T12:50:17.657Z,6352.00
2019-04-24T12:53:08.525Z,6376.00
2019-04-24T12:54:21.546Z,6360.00
2019-04-24T12:56:27.541Z,6440.00
2019-04-24T12:57:12.068Z,6464.00
2019-04-24T12:59:07.348Z,6404.00
2019-04-24T12:59:58.619Z,6356.00
2019-04-24T13:01:20.513Z,6356.00
2019-04-24T13:03:06.791Z,6424.00
2019-04-24T13:06:57.898Z,6364.00
2019-04-24T13:08:11.364Z,6348.00
2019-04-24T13:10:11.694Z,6336.00
2019-04-24T13:11:10.678Z,6332.00
2019-04-24T13:12:17.595Z,6280.00
2019-04-24T13:13:24.829Z,6252.00
2019-04-24T13:14:16.623Z,6296.00
2019-04-24T13:16:05.339Z,6412.00
2019-04-24T13:19:37.158Z,6508.00
2019-04-24T13:20:41.629Z,6564.00
2019-04-24T13:21:45.475Z,6656.00
2019-04-24T13:22:44.962Z,6764.00
2019-04-24T13:23:51.946Z,6780.00
2019-04-24T13:24:55.348Z,6760.00
2019-04-24T13:27:12.740Z,6668.00
2019-04-24T13:28:23.904Z,6628.00
2019-04-24T13:29:15.626Z,6588.00
2019-04-24T13:30:10.429Z,6576.00
2019-04-24T13:32:11.914Z,6544.00
2019-04-24T13:33:14.530Z,6472.00
2019-04-24T13:34:16.786Z,6476.00
2019-04-24T13:35:11.839Z,6556.00
2019-04-24T13:39:04.027Z,6648.00
2019-04-24T13:40:07.489Z,6676.00
2019-04-24T13:41:00.055Z,6700.00
2019-04-24T13:42:11.190Z,6688.00
2019-04-24T13:43:15.074Z,6672.00
2019-04-24T13:44:10.361Z,6680.00
2019-04-24T13:45:11.446Z,6656.00
2019-04-24T13:46:03.557Z,6596.00
2019-04-24T13:47:06.047Z,6544.00
2019-04-24T13:48:17.676Z,6524.00
2019-04-24T13:49:06.599Z,6508.00
2019-04-24T13:50:10.954Z,6540.00
2019-04-24T13:51:05.072Z,6572.00
2019-04-24T13:52:51.302Z,6532.00
2019-04-24T13:53:32.392Z,6548.00
2019-04-24T13:54:13.567Z,6548.00
2019-04-24T13:55:58.222Z,6548.00
2019-04-24T13:57:10.917Z,6580.00
2019-04-24T13:58:16.058Z,6608.00
2019-04-24T13:59:06.279Z,6620.00
2019-04-24T14:00:13.955Z,6660.00
2019-04-24T14:02:02.566Z,6720.00
2019-04-24T14:03:24.630Z,6712.00
2019-04-24T14:04:11.997Z,6688.00
2019-04-24T14:05:11.285Z,6652.00
2019-04-24T14:06:25.056Z,6644.00
2019-04-24T14:07:11.525Z,6636.00
2019-04-24T14:08:24.187Z,6648.00
2019-04-24T14:09:26.403Z,6696.00
2019-04-24T14:11:31.022Z,6684.00
2019-04-24T14:13:00.503Z,6644.00
2019-04-24T14:15:26.663Z,6596.00
2019-04-24T14:17:01.993Z,6556.00
2019-04-24T14:18:13.466Z,6580.00
2019-04-24T14:19:16.924Z,6576.00
2019-04-24T14:21:03.087Z,6488.00
2019-04-24T14:22:00.717Z,6488.00
2019-04-24T14:23:11.719Z,6408.00
2019-04-24T14:27:07.194Z,6364.00
2019-04-24T14:28:19.782Z,6372.00
2019-04-24T14:29:21.871Z,6388.00
2019-04-24T14:30:03.641Z,6404.00
2019-04-24T14:31:11.885Z,6432.00
2019-04-24T14:33:13.471Z,6440.00
2019-04-24T14:34:17.194Z,6432.00
2019-04-24T14:35:18.715Z,6456.00
2019-04-24T14:36:13.902Z,6524.00
2019-04-24T14:38:20.799Z,6576.00
2019-04-24T14:40:21.793Z,6692.00
2019-04-24T14:41:20.651Z,6764.00
2019-04-24T14:42:14.958Z,6816.00
2019-04-24T14:43:17.259Z,6864.00
2019-04-24T14:47:13.409Z,6828.00
2019-04-24T14:48:05.898Z,6784.00
2019-04-24T14:49:12.176Z,6752.00
2019-04-24T14:50:16.116Z,6704.00
2019-04-24T14:51:04.876Z,6684.00
2019-04-24T14:52:15.012Z,6672.00
2019-04-24T14:52:56.991Z,6664.00
2019-04-24T14:56:09.165Z,6676.00
2019-04-24T14:57:08.274Z,6680.00
2019-04-24T14:59:11.296Z,6620.00
2019-04-24T15:00:11.217Z,6596.00
2019-04-24T15:01:14.702Z,6604.00
2019-04-24T15:02:11.498Z,6600.00
2019-04-24T15:03:14.174Z,6636.00
2019-04-24T15:04:08.904Z,6636.00
2019-04-24T15:06:19.976Z,6752.00
2019-04-24T15:07:11.372Z,6772.00
2019-04-24T15:09:08.395Z,6840.00
2019-04-24T15:10:08.000Z,6860.00
2019-04-24T15:11:04.402Z,6888.00
2019-04-24T15:13:12.995Z,6908.00
2019-04-24T15:14:15.155Z,6900.00
2019-04-24T15:16:30.562Z,6864.00
2019-04-24T15:17:11.701Z,6892.00
2019-04-24T15:18:05.850Z,6936.00
2019-04-24T15:19:12.944Z,6936.00
2019-04-24T15:21:07.391Z,6876.00
2019-04-24T15:22:13.636Z,6860.00
2019-04-24T15:25:26.116Z,6900.00
2019-04-24T15:26:12.689Z,6904.00
2019-04-24T15:27:06.837Z,6908.00
2019-04-24T15:28:10.555Z,6876.00
2019-04-24T15:29:19.907Z,6880.00
2019-04-24T15:30:07.363Z,6892.00
2019-04-24T15:31:03.574Z,6892.00
2019-04-24T15:32:22.026Z,6840.00
2019-04-24T15:33:03.233Z,6772.00
2019-04-24T15:35:27.215Z,6680.00
2019-04-24T15:36:10.397Z,6680.00
2019-04-24T15:37:11.871Z,6688.00
2019-04-24T15:38:02.573Z,6660.00
2019-04-24T15:39:04.071Z,6608.00
2019-04-24T15:40:30.963Z,6572.00
2019-04-24T15:41:17.032Z,6556.00
2019-04-24T15:42:16.357Z,6536.00
2019-04-24T15:43:15.894Z,6516.00
2019-04-24T15:44:04.802Z,6488.00
2019-04-24T15:45:12.291Z,6448.00
2019-04-24T15:47:24.307Z,6356.00
2019-04-24T15:49:04.030Z,6376.00
2019-04-24T15:50:12.579Z,6384.00
2019-04-24T15:51:23.001Z,6384.00
2019-04-24T15:51:35.451Z,6372.00
2019-04-24T15:52:33.821Z,6340.00
2019-04-24T15:53:33.800Z,6292.00
2019-04-24T15:54:33.815Z,6256.00
2019-04-24T15:55:33.764Z,6268.00
2019-04-24T15:56:33.739Z,6252.00
2019-04-24T15:57:35.387Z,6236.00
2019-04-24T15:58:46.274Z,6220.00
2019-04-24T16:00:04.637Z,6216.00
2019-04-24T16:01:18.469Z,6240.00
2019-04-24T16:02:04.368Z,6272.00
2019-04-24T16:03:10.760Z,6280.00
2019-04-24T16:04:17.809Z,6288.00
2019-04-24T16:04:53.910Z,6284.00
2019-04-24T16:05:33.555Z,6292.00
2019-04-24T16:06:33.538Z,6272.00
2019-04-24T16:07:33.511Z,6260.00
2019-04-24T16:08:33.501Z,6264.00
2019-04-24T16:09:33.506Z,6272.00
2019-04-24T16:10:33.458Z,6268.00
2019-04-24T16:11:33.442Z,6264.00
2019-04-24T16:12:33.430Z,6268.00
2019-04-24T16:13:39.855Z,6272.00
2019-04-24T16:14:58.285Z,6272.00
2019-04-24T16:16:17.723Z,6260.00
2019-04-24T16:17:01.441Z,6248.00
2019-04-24T16:20:12.221Z,6212.00
2019-04-24T16:21:10.385Z,6184.00
2019-04-24T16:22:00.064Z,6168.00
2019-04-24T16:22:59.704Z,6152.00
2019-04-24T16:24:28.986Z,6128.00
2019-04-24T16:25:06.215Z,6120.00
2019-04-24T16:25:56.807Z,6124.00
2019-04-24T16:27:14.314Z,6104.00
2019-04-24T16:28:09.655Z,6104.00
2019-04-24T16:29:10.624Z,6088.00
2019-04-24T16:30:09.016Z,6044.00
2019-04-24T16:31:08.265Z,6044.00
2019-04-24T16:32:37.033Z,6016.00
2019-04-24T16:34:00.051Z,6008.00
2019-04-24T16:38:08.920Z,6028.00
2019-04-24T16:39:04.448Z,6016.00
2019-04-24T16:40:31.174Z,5988.00
2019-04-24T16:41:10.313Z,5976.00
2019-04-24T16:43:17.984Z,5868.00
2019-04-24T16:46:35.080Z,5880.00
2019-04-24T16:49:02.760Z,5880.00
2019-04-24T16:52:08.714Z,6004.00
2019-04-24T16:54:05.852Z,6264.00
2019-04-24T16:55:02.557Z,6288.00
2019-04-24T16:55:53.947Z,6312.00
2019-04-24T16:58:13.517Z,7192.00
2019-04-24T17:00:14.247Z,9060.00
2019-04-24T17:02:03.684Z,9092.00
2019-04-24T17:03:12.698Z,8960.00
2019-04-24T17:04:24.137Z,9128.00
2019-04-24T17:06:12.354Z,9224.00
2019-04-24T17:08:11.070Z,8900.00
2019-04-24T17:09:11.302Z,8920.00
2019-04-24T17:10:05.287Z,8616.00
2019-04-24T17:11:09.948Z,8316.00
2019-04-24T17:12:02.099Z,8172.00
2019-04-24T17:13:20.555Z,8080.00
2019-04-24T17:14:10.688Z,8100.00
2019-04-24T17:14:56.479Z,8332.00
2019-04-24T17:16:06.897Z,8364.00
2019-04-24T17:19:14.326Z,8532.00
2019-04-24T17:23:00.855Z,8604.00
2019-04-24T17:25:04.211Z,7496.00
2019-04-24T17:26:07.472Z,8416.00
2019-04-24T17:27:07.149Z,10464.00